Sign in

Advertising

Info

Aviation weather - KDAB

METAR KDAB 082253Z 00000KT 9SM SCT120 BKN200 16/13 A3014 RMK AO2 SLP206 T01560133 $

Aviation weather from ADDS. Re-check weather before flight.

-